RYR1446 GCLP-GMMX
Flight info
| Callsign | RYR1446 |
|---|---|
| Flight time | 1h 13m |
| Altitude | 36000 |
| Route | KORAL UG5 SONSO UG664 ADM UG850 LISRA |
| Aircraft | B738/M-SDE2E3FGHIRWXY/LB2 |
Departure
| Time | 2026-04-29 21:35 |
|---|---|
| Airport | Gran Canaria Airport (GCLP) |
Arrival
| Time | 2026-04-29 22:49 |
|---|---|
| Airport | Marrakesh Menara Airport (GMMX) |
| Time | Latitude | Longitude | Altitude | Speed | Heading |
|---|---|---|---|---|---|
| 2026-04-29 21:03 | 27.94151 | -15.38685 | 107 ft | 0 kts | 291° |
| 2026-04-29 21:23 | 27.94150 | -15.38684 | 107 ft | 1 kts | 291° |
| 2026-04-29 21:23 | 27.94145 | -15.38668 | 106 ft | 2 kts | 291° |
| 2026-04-29 21:23 | 27.94140 | -15.38652 | 105 ft | 2 kts | 291° |
| 2026-04-29 21:24 | 27.94136 | -15.38642 | 104 ft | 1 kts | 291° |
| 2026-04-29 21:24 | 27.94132 | -15.38626 | 103 ft | 2 kts | 265° |
| 2026-04-29 21:24 | 27.94136 | -15.38609 | 102 ft | 2 kts | 242° |
| 2026-04-29 21:24 | 27.94146 | -15.38596 | 101 ft | 2 kts | 217° |
| 2026-04-29 21:25 | 27.94153 | -15.38590 | 101 ft | 1 kts | 202° |
| 2026-04-29 21:25 | 27.94160 | -15.38588 | 101 ft | 0 kts | 201° |
| 2026-04-29 21:27 | 27.94159 | -15.38588 | 101 ft | 0 kts | 201° |
| 2026-04-29 21:27 | 27.94139 | -15.38597 | 101 ft | 5 kts | 201° |
| 2026-04-29 21:28 | 27.94094 | -15.38600 | 101 ft | 8 kts | 144° |
| 2026-04-29 21:28 | 27.94062 | -15.38510 | 94 ft | 16 kts | 107° |
| 2026-04-29 21:28 | 27.93976 | -15.38502 | 93 ft | 13 kts | 202° |
| 2026-04-29 21:28 | 27.93894 | -15.38538 | 96 ft | 12 kts | 201° |
| 2026-04-29 21:29 | 27.93816 | -15.38573 | 99 ft | 11 kts | 202° |
| 2026-04-29 21:29 | 27.93739 | -15.38607 | 101 ft | 12 kts | 201° |
| 2026-04-29 21:29 | 27.93657 | -15.38643 | 102 ft | 13 kts | 201° |
| 2026-04-29 21:29 | 27.93564 | -15.38684 | 103 ft | 15 kts | 202° |
| 2026-04-29 21:30 | 27.93460 | -15.38730 | 104 ft | 15 kts | 201° |
| 2026-04-29 21:30 | 27.93377 | -15.38767 | 106 ft | 13 kts | 201° |
| 2026-04-29 21:30 | 27.93269 | -15.38816 | 98 ft | 19 kts | 202° |
| 2026-04-29 21:30 | 27.93142 | -15.38874 | 97 ft | 19 kts | 207° |
| 2026-04-29 21:31 | 27.93012 | -15.38936 | 93 ft | 20 kts | 202° |
| 2026-04-29 21:31 | 27.92882 | -15.38993 | 94 ft | 19 kts | 201° |
| 2026-04-29 21:31 | 27.92760 | -15.39045 | 96 ft | 17 kts | 201° |
| 2026-04-29 21:31 | 27.92660 | -15.39094 | 100 ft | 14 kts | 204° |
| 2026-04-29 21:32 | 27.92571 | -15.39132 | 104 ft | 14 kts | 200° |
| 2026-04-29 21:32 | 27.92464 | -15.39179 | 110 ft | 17 kts | 202° |
| 2026-04-29 21:32 | 27.92361 | -15.39224 | 112 ft | 15 kts | 201° |
| 2026-04-29 21:32 | 27.92266 | -15.39265 | 114 ft | 13 kts | 201° |
| 2026-04-29 21:33 | 27.92189 | -15.39300 | 117 ft | 10 kts | 202° |
| 2026-04-29 21:33 | 27.92111 | -15.39334 | 116 ft | 13 kts | 201° |
| 2026-04-29 21:33 | 27.92025 | -15.39373 | 116 ft | 12 kts | 203° |
| 2026-04-29 21:33 | 27.91944 | -15.39407 | 117 ft | 11 kts | 196° |
| 2026-04-29 21:34 | 27.91877 | -15.39384 | 116 ft | 11 kts | 117° |
| 2026-04-29 21:34 | 27.91843 | -15.39282 | 111 ft | 15 kts | 110° |
| 2026-04-29 21:34 | 27.91802 | -15.39163 | 107 ft | 17 kts | 111° |
| 2026-04-29 21:34 | 27.91819 | -15.39037 | 101 ft | 19 kts | 26° |
| 2026-04-29 21:35 | 27.92036 | -15.38940 | 94 ft | 63 kts | 22° |
| 2026-04-29 21:35 | 27.92671 | -15.38658 | 72 ft | 130 kts | 21° |
| 2026-04-29 21:35 | 27.93669 | -15.38213 | 180 ft | 169 kts | 22° |
| 2026-04-29 21:35 | 27.94761 | -15.37732 | 811 ft | 171 kts | 21° |
| 2026-04-29 21:36 | 27.95849 | -15.37241 | 1555 ft | 169 kts | 22° |
| 2026-04-29 21:36 | 27.96973 | -15.36736 | 2105 ft | 182 kts | 21° |
| 2026-04-29 21:36 | 27.98188 | -15.36181 | 2631 ft | 199 kts | 22° |
| 2026-04-29 21:36 | 27.99520 | -15.35552 | 3214 ft | 214 kts | 22° |
| 2026-04-29 21:37 | 28.00943 | -15.34880 | 3769 ft | 232 kts | 21° |
| 2026-04-29 21:37 | 28.02510 | -15.34145 | 4003 ft | 256 kts | 22° |
| 2026-04-29 21:37 | 28.04214 | -15.33342 | 3979 ft | 265 kts | 22° |
| 2026-04-29 21:37 | 28.05912 | -15.32537 | 3978 ft | 267 kts | 22° |
| 2026-04-29 21:38 | 28.07629 | -15.31725 | 3975 ft | 266 kts | 22° |
| 2026-04-29 21:38 | 28.09344 | -15.30913 | 3979 ft | 265 kts | 22° |
| 2026-04-29 21:38 | 28.11048 | -15.30108 | 3977 ft | 265 kts | 22° |
| 2026-04-29 21:38 | 28.12760 | -15.29297 | 3975 ft | 266 kts | 22° |
| 2026-04-29 21:39 | 28.14472 | -15.28485 | 3973 ft | 265 kts | 22° |
| 2026-04-29 21:39 | 28.16183 | -15.27673 | 3971 ft | 266 kts | 22° |
| 2026-04-29 21:39 | 28.17890 | -15.26863 | 3972 ft | 266 kts | 22° |
| 2026-04-29 21:39 | 28.19595 | -15.26051 | 3973 ft | 266 kts | 22° |
| 2026-04-29 21:40 | 28.21298 | -15.25239 | 3974 ft | 266 kts | 22° |
| 2026-04-29 21:40 | 28.23006 | -15.24413 | 3973 ft | 267 kts | 22° |
| 2026-04-29 21:40 | 28.24710 | -15.23579 | 3970 ft | 266 kts | 22° |
| 2026-04-29 21:40 | 28.26422 | -15.22756 | 3970 ft | 266 kts | 21° |
| 2026-04-29 21:41 | 28.28129 | -15.21962 | 3970 ft | 265 kts | 21° |
| 2026-04-29 21:41 | 28.29859 | -15.21162 | 3972 ft | 266 kts | 21° |
| 2026-04-29 21:41 | 28.31552 | -15.20368 | 3972 ft | 265 kts | 21° |
| 2026-04-29 21:41 | 28.33332 | -15.19880 | 3970 ft | 263 kts | 357° |
| 2026-04-29 21:42 | 28.35176 | -15.20312 | 4332 ft | 277 kts | 345° |
| 2026-04-29 21:42 | 28.37035 | -15.20433 | 5416 ft | 276 kts | 10° |
| 2026-04-29 21:42 | 28.38756 | -15.19483 | 6282 ft | 284 kts | 42° |
| 2026-04-29 21:42 | 28.39826 | -15.17609 | 7113 ft | 290 kts | 73° |
| 2026-04-29 21:43 | 28.40159 | -15.15356 | 7978 ft | 293 kts | 85° |
| 2026-04-29 21:43 | 28.40403 | -15.13054 | 8798 ft | 298 kts | 80° |
| 2026-04-29 21:43 | 28.40929 | -15.10772 | 9628 ft | 302 kts | 71° |
| 2026-04-29 21:43 | 28.41734 | -15.08563 | 10384 ft | 309 kts | 64° |
| 2026-04-29 21:44 | 28.42734 | -15.06344 | 10902 ft | 324 kts | 61° |
| 2026-04-29 21:44 | 28.43849 | -15.04071 | 11405 ft | 339 kts | 60° |
| 2026-04-29 21:44 | 28.45043 | -15.01672 | 11837 ft | 356 kts | 60° |
| 2026-04-29 21:44 | 28.46284 | -14.99163 | 12303 ft | 371 kts | 60° |
| 2026-04-29 21:45 | 28.47547 | -14.96582 | 12976 ft | 378 kts | 60° |
| 2026-04-29 21:45 | 28.48815 | -14.93975 | 13690 ft | 384 kts | 61° |
| 2026-04-29 21:45 | 28.50109 | -14.91299 | 14409 ft | 389 kts | 61° |
| 2026-04-29 21:45 | 28.51410 | -14.88598 | 15130 ft | 394 kts | 61° |
| 2026-04-29 21:46 | 28.52734 | -14.85840 | 15832 ft | 399 kts | 61° |
| 2026-04-29 21:46 | 28.54062 | -14.83070 | 16570 ft | 403 kts | 61° |
| 2026-04-29 21:46 | 28.55400 | -14.80280 | 17215 ft | 408 kts | 61° |
| 2026-04-29 21:46 | 28.56774 | -14.77422 | 17917 ft | 412 kts | 61° |
| 2026-04-29 21:47 | 28.58140 | -14.74576 | 18596 ft | 415 kts | 61° |
| 2026-04-29 21:47 | 28.59530 | -14.71681 | 19183 ft | 421 kts | 61° |
| 2026-04-29 21:47 | 28.60927 | -14.68770 | 19810 ft | 425 kts | 61° |
| 2026-04-29 21:47 | 28.62356 | -14.65794 | 20410 ft | 430 kts | 61° |
| 2026-04-29 21:48 | 28.63792 | -14.62803 | 21015 ft | 434 kts | 61° |
| 2026-04-29 21:48 | 28.65241 | -14.59780 | 21622 ft | 437 kts | 60° |
| 2026-04-29 21:48 | 28.66688 | -14.56760 | 22189 ft | 441 kts | 60° |
| 2026-04-29 21:48 | 28.68172 | -14.53660 | 22701 ft | 446 kts | 60° |
| 2026-04-29 21:49 | 28.69645 | -14.50581 | 23246 ft | 449 kts | 60° |
| 2026-04-29 21:49 | 28.71143 | -14.47444 | 23801 ft | 453 kts | 60° |
| 2026-04-29 21:49 | 28.72665 | -14.44259 | 24343 ft | 456 kts | 61° |
| 2026-04-29 21:49 | 28.74185 | -14.41075 | 24886 ft | 459 kts | 61° |
| 2026-04-29 21:50 | 28.75710 | -14.37877 | 25393 ft | 463 kts | 61° |
| 2026-04-29 21:50 | 28.77231 | -14.34683 | 25932 ft | 465 kts | 62° |
| 2026-04-29 21:50 | 28.78788 | -14.31410 | 26349 ft | 470 kts | 62° |
| 2026-04-29 21:50 | 28.80353 | -14.28118 | 26867 ft | 472 kts | 62° |
| 2026-04-29 21:51 | 28.81912 | -14.24835 | 27353 ft | 475 kts | 62° |
| 2026-04-29 21:51 | 28.83490 | -14.21513 | 27760 ft | 479 kts | 62° |
| 2026-04-29 21:51 | 28.86668 | -14.14813 | 28806 ft | 482 kts | 62° |
| 2026-04-29 21:52 | 28.88251 | -14.11474 | 29543 ft | 477 kts | 63° |
| 2026-04-29 21:52 | 28.89825 | -14.08148 | 30190 ft | 474 kts | 63° |
| 2026-04-29 21:52 | 28.91384 | -14.04851 | 30711 ft | 474 kts | 63° |
| 2026-04-29 21:52 | 28.92952 | -14.01530 | 31144 ft | 475 kts | 63° |
| 2026-04-29 21:53 | 28.94512 | -13.98222 | 31506 ft | 477 kts | 63° |
| 2026-04-29 21:53 | 28.96089 | -13.94874 | 31967 ft | 477 kts | 63° |
| 2026-04-29 21:53 | 28.97646 | -13.91567 | 32414 ft | 477 kts | 63° |
| 2026-04-29 21:53 | 28.99219 | -13.88224 | 32849 ft | 477 kts | 63° |
| 2026-04-29 21:54 | 29.00775 | -13.84917 | 33230 ft | 477 kts | 63° |
| 2026-04-29 21:54 | 29.02344 | -13.81580 | 33557 ft | 479 kts | 63° |
| 2026-04-29 21:54 | 29.03933 | -13.78195 | 33926 ft | 480 kts | 63° |
| 2026-04-29 21:54 | 29.05495 | -13.74864 | 34238 ft | 480 kts | 63° |
| 2026-04-29 21:55 | 29.07064 | -13.71520 | 34542 ft | 481 kts | 63° |
| 2026-04-29 21:55 | 29.08636 | -13.68168 | 34831 ft | 481 kts | 63° |
| 2026-04-29 21:55 | 29.10234 | -13.64757 | 35125 ft | 482 kts | 63° |
| 2026-04-29 21:55 | 29.11801 | -13.61407 | 35398 ft | 482 kts | 63° |
| 2026-04-29 21:56 | 29.13373 | -13.58044 | 35640 ft | 483 kts | 63° |
| 2026-04-29 21:56 | 29.14959 | -13.54650 | 35919 ft | 484 kts | 63° |
| 2026-04-29 21:56 | 29.16570 | -13.51273 | 36283 ft | 487 kts | 61° |
| 2026-04-29 21:56 | 29.18334 | -13.47961 | 36059 ft | 488 kts | 58° |
| 2026-04-29 21:57 | 29.22138 | -13.41641 | 36011 ft | 478 kts | 54° |
| 2026-04-29 21:57 | 29.26062 | -13.35414 | 36010 ft | 486 kts | 54° |
| 2026-04-29 21:58 | 29.29969 | -13.29168 | 36006 ft | 481 kts | 55° |
| 2026-04-29 21:58 | 29.33827 | -13.22913 | 36008 ft | 485 kts | 56° |
| 2026-04-29 21:59 | 29.37701 | -13.16579 | 36007 ft | 485 kts | 56° |
| 2026-04-29 21:59 | 29.41536 | -13.10275 | 36011 ft | 485 kts | 56° |
| 2026-04-29 22:00 | 29.45391 | -13.03920 | 36014 ft | 484 kts | 56° |
| 2026-04-29 22:00 | 29.49204 | -12.97625 | 36018 ft | 484 kts | 56° |
| 2026-04-29 22:01 | 29.53052 | -12.91263 | 36017 ft | 483 kts | 56° |
| 2026-04-29 22:01 | 29.56864 | -12.84950 | 36020 ft | 483 kts | 56° |
| 2026-04-29 22:02 | 29.60676 | -12.78629 | 36020 ft | 483 kts | 56° |
| 2026-04-29 22:02 | 29.64508 | -12.72266 | 36020 ft | 483 kts | 56° |
| 2026-04-29 22:03 | 29.68307 | -12.65951 | 36020 ft | 484 kts | 56° |
| 2026-04-29 22:03 | 29.72139 | -12.59568 | 36021 ft | 484 kts | 56° |
| 2026-04-29 22:04 | 29.75928 | -12.53224 | 36024 ft | 484 kts | 56° |
| 2026-04-29 22:04 | 29.79726 | -12.46804 | 36027 ft | 484 kts | 56° |
| 2026-04-29 22:05 | 29.83483 | -12.40434 | 36029 ft | 483 kts | 56° |
| 2026-04-29 22:06 | 29.89150 | -12.30810 | 36028 ft | 484 kts | 57° |
| 2026-04-29 22:06 | 29.92920 | -12.24399 | 36029 ft | 483 kts | 57° |
| 2026-04-29 22:07 | 29.96665 | -12.18024 | 36031 ft | 484 kts | 57° |
| 2026-04-29 22:07 | 30.00170 | -12.11397 | 36028 ft | 483 kts | 67° |
| 2026-04-29 22:08 | 30.02122 | -12.04075 | 36032 ft | 477 kts | 82° |
| 2026-04-29 22:08 | 30.03162 | -11.96571 | 36029 ft | 474 kts | 86° |
| 2026-04-29 22:09 | 30.04011 | -11.89084 | 36028 ft | 475 kts | 86° |
| 2026-04-29 22:09 | 30.04865 | -11.81532 | 36025 ft | 475 kts | 86° |
| 2026-04-29 22:10 | 30.05744 | -11.74000 | 36024 ft | 476 kts | 85° |
| 2026-04-29 22:10 | 30.06648 | -11.66435 | 36020 ft | 477 kts | 85° |
| 2026-04-29 22:11 | 30.07560 | -11.58872 | 36011 ft | 475 kts | 85° |
| 2026-04-29 22:11 | 30.08466 | -11.51371 | 36007 ft | 476 kts | 85° |
| 2026-04-29 22:12 | 30.09379 | -11.43793 | 36011 ft | 477 kts | 85° |
| 2026-04-29 22:12 | 30.10287 | -11.36229 | 36008 ft | 475 kts | 85° |
| 2026-04-29 22:13 | 30.11183 | -11.28713 | 36010 ft | 476 kts | 86° |
| 2026-04-29 22:13 | 30.12078 | -11.21155 | 36007 ft | 477 kts | 86° |
| 2026-04-29 22:14 | 30.12971 | -11.13580 | 36009 ft | 477 kts | 86° |
| 2026-04-29 22:14 | 30.13866 | -11.05963 | 36010 ft | 478 kts | 86° |
| 2026-04-29 22:15 | 30.14752 | -10.98385 | 36006 ft | 476 kts | 86° |
| 2026-04-29 22:15 | 30.15631 | -10.90824 | 36014 ft | 477 kts | 86° |
| 2026-04-29 22:16 | 30.16501 | -10.83310 | 36009 ft | 476 kts | 86° |
| 2026-04-29 22:16 | 30.17376 | -10.75693 | 36002 ft | 477 kts | 86° |
| 2026-04-29 22:17 | 30.18238 | -10.68172 | 36004 ft | 474 kts | 86° |
| 2026-04-29 22:17 | 30.19098 | -10.60613 | 36006 ft | 477 kts | 86° |
| 2026-04-29 22:18 | 30.19954 | -10.53052 | 36006 ft | 476 kts | 86° |
| 2026-04-29 22:18 | 30.20814 | -10.45416 | 36005 ft | 477 kts | 86° |
| 2026-04-29 22:19 | 30.21664 | -10.37847 | 36003 ft | 478 kts | 85° |
| 2026-04-29 22:19 | 30.22511 | -10.30250 | 36005 ft | 478 kts | 86° |
| 2026-04-29 22:20 | 30.23356 | -10.22631 | 36006 ft | 478 kts | 86° |
| 2026-04-29 22:20 | 30.24175 | -10.15030 | 36006 ft | 478 kts | 86° |
| 2026-04-29 22:21 | 30.24975 | -10.07461 | 35998 ft | 477 kts | 86° |
| 2026-04-29 22:21 | 30.25772 | -9.99858 | 36004 ft | 479 kts | 86° |
| 2026-04-29 22:22 | 30.26570 | -9.92232 | 36001 ft | 480 kts | 86° |
| 2026-04-29 22:22 | 30.27372 | -9.84537 | 35998 ft | 482 kts | 86° |
| 2026-04-29 22:23 | 30.28176 | -9.76910 | 35988 ft | 479 kts | 86° |
| 2026-04-29 22:23 | 30.28985 | -9.69264 | 35999 ft | 480 kts | 86° |
| 2026-04-29 22:24 | 30.29785 | -9.61649 | 36001 ft | 479 kts | 86° |
| 2026-04-29 22:24 | 30.30582 | -9.53995 | 35867 ft | 480 kts | 86° |
| 2026-04-29 22:24 | 30.30980 | -9.50166 | 35420 ft | 477 kts | 86° |
| 2026-04-29 22:25 | 30.31394 | -9.46416 | 34800 ft | 477 kts | 84° |
| 2026-04-29 22:25 | 30.32073 | -9.42661 | 34305 ft | 475 kts | 76° |
| 2026-04-29 22:25 | 30.33294 | -9.39136 | 33844 ft | 473 kts | 62° |
| 2026-04-29 22:25 | 30.35119 | -9.36016 | 33378 ft | 469 kts | 49° |
| 2026-04-29 22:26 | 30.37363 | -9.33318 | 32886 ft | 465 kts | 42° |
| 2026-04-29 22:26 | 30.39765 | -9.30806 | 32379 ft | 461 kts | 40° |
| 2026-04-29 22:26 | 30.42186 | -9.28408 | 31890 ft | 458 kts | 39° |
| 2026-04-29 22:26 | 30.44627 | -9.26051 | 31386 ft | 455 kts | 38° |
| 2026-04-29 22:27 | 30.47059 | -9.23722 | 30890 ft | 452 kts | 38° |
| 2026-04-29 22:27 | 30.49444 | -9.21435 | 30400 ft | 449 kts | 38° |
| 2026-04-29 22:27 | 30.51832 | -9.19137 | 29917 ft | 445 kts | 39° |
| 2026-04-29 22:27 | 30.54223 | -9.16825 | 29418 ft | 442 kts | 39° |
| 2026-04-29 22:28 | 30.56561 | -9.14553 | 28935 ft | 439 kts | 39° |
| 2026-04-29 22:28 | 30.58879 | -9.12294 | 28459 ft | 435 kts | 39° |
| 2026-04-29 22:28 | 30.61167 | -9.10058 | 27987 ft | 431 kts | 39° |
| 2026-04-29 22:28 | 30.63462 | -9.07811 | 27505 ft | 428 kts | 39° |
| 2026-04-29 22:29 | 30.65713 | -9.05607 | 27030 ft | 425 kts | 39° |
| 2026-04-29 22:29 | 30.67964 | -9.03411 | 26545 ft | 422 kts | 39° |
| 2026-04-29 22:29 | 30.70206 | -9.01226 | 26073 ft | 418 kts | 39° |
| 2026-04-29 22:29 | 30.72427 | -8.99063 | 25602 ft | 415 kts | 39° |
| 2026-04-29 22:30 | 30.74609 | -8.96936 | 25135 ft | 412 kts | 39° |
| 2026-04-29 22:30 | 30.76808 | -8.94791 | 24659 ft | 409 kts | 39° |
| 2026-04-29 22:30 | 30.78983 | -8.92667 | 24181 ft | 406 kts | 39° |
| 2026-04-29 22:30 | 30.81118 | -8.90579 | 23702 ft | 403 kts | 39° |
| 2026-04-29 22:31 | 30.83261 | -8.88483 | 23232 ft | 400 kts | 39° |
| 2026-04-29 22:31 | 30.85361 | -8.86427 | 22768 ft | 397 kts | 39° |
| 2026-04-29 22:31 | 30.87477 | -8.84353 | 22303 ft | 394 kts | 39° |
| 2026-04-29 22:31 | 30.89556 | -8.82314 | 21847 ft | 392 kts | 39° |
| 2026-04-29 22:32 | 30.91641 | -8.80257 | 21355 ft | 390 kts | 39° |
| 2026-04-29 22:32 | 30.93671 | -8.78238 | 20904 ft | 387 kts | 40° |
| 2026-04-29 22:32 | 30.95721 | -8.76188 | 20451 ft | 384 kts | 40° |
| 2026-04-29 22:32 | 30.97717 | -8.74188 | 20002 ft | 381 kts | 40° |
| 2026-04-29 22:33 | 30.99716 | -8.72183 | 19550 ft | 378 kts | 39° |
| 2026-04-29 22:33 | 31.01697 | -8.70196 | 19092 ft | 375 kts | 39° |
| 2026-04-29 22:33 | 31.03681 | -8.68206 | 18627 ft | 373 kts | 39° |
| 2026-04-29 22:33 | 31.05640 | -8.66240 | 18160 ft | 370 kts | 39° |
| 2026-04-29 22:34 | 31.07584 | -8.64288 | 17701 ft | 367 kts | 39° |
| 2026-04-29 22:34 | 31.09492 | -8.62374 | 17250 ft | 365 kts | 40° |
| 2026-04-29 22:34 | 31.11423 | -8.60436 | 16790 ft | 362 kts | 39° |
| 2026-04-29 22:34 | 31.13328 | -8.58524 | 16337 ft | 359 kts | 39° |
| 2026-04-29 22:35 | 31.15215 | -8.56630 | 15887 ft | 357 kts | 40° |
| 2026-04-29 22:35 | 31.17081 | -8.54755 | 15435 ft | 354 kts | 40° |
| 2026-04-29 22:35 | 31.18945 | -8.52881 | 15000 ft | 350 kts | 39° |
| 2026-04-29 22:35 | 31.20783 | -8.51036 | 14547 ft | 348 kts | 39° |
| 2026-04-29 22:36 | 31.22700 | -8.49385 | 14130 ft | 344 kts | 29° |
| 2026-04-29 22:36 | 31.24905 | -8.48397 | 13671 ft | 338 kts | 7° |
| 2026-04-29 22:36 | 31.27232 | -8.48267 | 13259 ft | 331 kts | 356° |
| 2026-04-29 22:36 | 31.29530 | -8.48370 | 12834 ft | 328 kts | 355° |
| 2026-04-29 22:37 | 31.31812 | -8.48501 | 12420 ft | 326 kts | 355° |
| 2026-04-29 22:37 | 31.34074 | -8.48606 | 12010 ft | 324 kts | 356° |
| 2026-04-29 22:37 | 31.36328 | -8.48680 | 11566 ft | 323 kts | 357° |
| 2026-04-29 22:37 | 31.38545 | -8.48732 | 11107 ft | 321 kts | 358° |
| 2026-04-29 22:38 | 31.40785 | -8.48770 | 10710 ft | 320 kts | 358° |
| 2026-04-29 22:38 | 31.43004 | -8.48803 | 10288 ft | 318 kts | 358° |
| 2026-04-29 22:38 | 31.45208 | -8.48833 | 10019 ft | 311 kts | 358° |
| 2026-04-29 22:38 | 31.47321 | -8.48863 | 9742 ft | 305 kts | 358° |
| 2026-04-29 22:39 | 31.49456 | -8.48896 | 9287 ft | 303 kts | 358° |
| 2026-04-29 22:39 | 31.51503 | -8.48928 | 8951 ft | 290 kts | 358° |
| 2026-04-29 22:39 | 31.53495 | -8.48960 | 8602 ft | 279 kts | 359° |
| 2026-04-29 22:39 | 31.55393 | -8.48991 | 8234 ft | 270 kts | 359° |
| 2026-04-29 22:40 | 31.57263 | -8.49022 | 7950 ft | 269 kts | 359° |
| 2026-04-29 22:40 | 31.59157 | -8.49054 | 7812 ft | 268 kts | 359° |
| 2026-04-29 22:40 | 31.60962 | -8.49029 | 7705 ft | 256 kts | 5° |
| 2026-04-29 22:40 | 31.62647 | -8.48531 | 7637 ft | 243 kts | 30° |
| 2026-04-29 22:41 | 31.63905 | -8.47295 | 7511 ft | 237 kts | 54° |
| 2026-04-29 22:41 | 31.64721 | -8.45607 | 7186 ft | 239 kts | 70° |
| 2026-04-29 22:41 | 31.65111 | -8.43726 | 6887 ft | 236 kts | 88° |
| 2026-04-29 22:41 | 31.64988 | -8.41830 | 6622 ft | 232 kts | 99° |
| 2026-04-29 22:42 | 31.64737 | -8.39980 | 6340 ft | 232 kts | 99° |
| 2026-04-29 22:42 | 31.64489 | -8.38121 | 6063 ft | 231 kts | 99° |
| 2026-04-29 22:42 | 31.64220 | -8.36249 | 5788 ft | 229 kts | 100° |
| 2026-04-29 22:42 | 31.63929 | -8.34435 | 5532 ft | 227 kts | 102° |
| 2026-04-29 22:43 | 31.63602 | -8.32644 | 5267 ft | 224 kts | 105° |
| 2026-04-29 22:43 | 31.63173 | -8.30903 | 4996 ft | 220 kts | 104° |
| 2026-04-29 22:43 | 31.62897 | -8.29157 | 4743 ft | 216 kts | 97° |
| 2026-04-29 22:43 | 31.62748 | -8.27422 | 4524 ft | 211 kts | 94° |
| 2026-04-29 22:44 | 31.62625 | -8.25764 | 4388 ft | 200 kts | 95° |
| 2026-04-29 22:44 | 31.62488 | -8.24164 | 4220 ft | 191 kts | 95° |
| 2026-04-29 22:44 | 31.62355 | -8.22655 | 4069 ft | 182 kts | 95° |
| 2026-04-29 22:44 | 31.62230 | -8.21223 | 3953 ft | 168 kts | 94° |
| 2026-04-29 22:45 | 31.62116 | -8.19910 | 3751 ft | 155 kts | 94° |
| 2026-04-29 22:45 | 31.62009 | -8.18675 | 3600 ft | 154 kts | 94° |
| 2026-04-29 22:45 | 31.61900 | -8.17419 | 3466 ft | 153 kts | 94° |
| 2026-04-29 22:45 | 31.61791 | -8.16161 | 3351 ft | 156 kts | 95° |
| 2026-04-29 22:46 | 31.61674 | -8.14905 | 3112 ft | 153 kts | 93° |
| 2026-04-29 22:46 | 31.61574 | -8.13681 | 2925 ft | 153 kts | 94° |
| 2026-04-29 22:46 | 31.61465 | -8.12430 | 2720 ft | 153 kts | 95° |
| 2026-04-29 22:46 | 31.61356 | -8.11198 | 2521 ft | 152 kts | 95° |
| 2026-04-29 22:47 | 31.61249 | -8.09968 | 2322 ft | 151 kts | 96° |
| 2026-04-29 22:47 | 31.61139 | -8.08734 | 2100 ft | 151 kts | 97° |
| 2026-04-29 22:47 | 31.61024 | -8.07521 | 1930 ft | 149 kts | 97° |
| 2026-04-29 22:47 | 31.60934 | -8.06307 | 1738 ft | 150 kts | 96° |
| 2026-04-29 22:48 | 31.60824 | -8.05109 | 1564 ft | 148 kts | 97° |
| 2026-04-29 22:48 | 31.60719 | -8.03933 | 1536 ft | 129 kts | 96° |
| 2026-04-29 22:48 | 31.60649 | -8.03163 | 1543 ft | 73 kts | 96° |
| 2026-04-29 22:48 | 31.60600 | -8.02598 | 1550 ft | 55 kts | 96° |
| 2026-04-29 22:49 | 31.60568 | -8.02232 | 1556 ft | 28 kts | 96° |
| 2026-04-29 22:49 | 31.60525 | -8.02152 | 1557 ft | 9 kts | 188° |
| 2026-04-29 22:49 | 31.60462 | -8.02167 | 1558 ft | 8 kts | 186° |
| 2026-04-29 22:49 | 31.60410 | -8.02174 | 1559 ft | 6 kts | 196° |
| 2026-04-29 22:50 | 31.60394 | -8.02218 | 1559 ft | 7 kts | 273° |
| 2026-04-29 22:50 | 31.60400 | -8.02296 | 1559 ft | 10 kts | 277° |
| 2026-04-29 22:50 | 31.60408 | -8.02379 | 1559 ft | 10 kts | 275° |
| 2026-04-29 22:50 | 31.60413 | -8.02447 | 1559 ft | 7 kts | 276° |
| 2026-04-29 22:51 | 31.60395 | -8.02487 | 1560 ft | 5 kts | 202° |
| 2026-04-29 22:51 | 31.60362 | -8.02494 | 1561 ft | 3 kts | 185° |
| 2026-04-29 22:51 | 31.60336 | -8.02497 | 1562 ft | 0 kts | 187° |